createdAt,value
2018-10-09T00:00:53.847Z,6.50
2018-10-09T00:03:24.403Z,5.73
2018-10-09T00:05:53.799Z,4.70
2018-10-09T00:08:24.295Z,5.22
2018-10-09T00:10:53.727Z,3.80
2018-10-09T00:13:24.375Z,4.70
2018-10-09T00:15:53.827Z,4.10
2018-10-09T00:18:24.347Z,5.04
2018-10-09T00:20:53.730Z,4.73
2018-10-09T00:23:24.379Z,4.50
2018-10-09T00:25:53.772Z,5.00
2018-10-09T00:28:24.408Z,5.70
2018-10-09T00:30:53.792Z,4.93
2018-10-09T00:33:24.422Z,5.40
2018-10-09T00:35:53.814Z,5.83
2018-10-09T00:38:24.448Z,5.33
2018-10-09T00:40:53.869Z,4.10
2018-10-09T00:43:24.323Z,4.22
2018-10-09T00:45:53.828Z,4.90
2018-10-09T00:48:24.347Z,4.18
2018-10-09T00:50:53.783Z,6.00
2018-10-09T00:53:24.447Z,4.97
2018-10-09T00:55:53.903Z,5.83
2018-10-09T00:58:24.535Z,5.47
2018-10-09T01:00:53.924Z,6.40
2018-10-09T01:03:24.567Z,6.87
2018-10-09T01:05:53.948Z,5.30
2018-10-09T01:08:24.575Z,5.17
2018-10-09T01:10:53.971Z,4.53
2018-10-09T01:13:24.705Z,4.87
2018-10-09T01:15:54.334Z,5.27
2018-10-09T01:18:24.567Z,5.95
2018-10-09T01:20:53.958Z,5.57
2018-10-09T01:23:24.603Z,6.67
2018-10-09T01:25:54.003Z,5.37
2018-10-09T01:28:24.532Z,4.98
2018-10-09T01:30:54.035Z,5.50
2018-10-09T01:33:24.571Z,4.96
2018-10-09T01:35:53.952Z,5.77
2018-10-09T01:38:24.579Z,5.37
2018-10-09T01:40:53.999Z,4.87
2018-10-09T01:43:24.556Z,5.98
2018-10-09T01:45:53.947Z,5.63
2018-10-09T01:48:24.622Z,4.27
2018-10-09T01:50:54.008Z,4.17
2018-10-09T01:53:24.654Z,5.07
2018-10-09T01:55:54.043Z,4.67
2018-10-09T01:58:24.560Z,5.66
2018-10-09T02:00:54.095Z,5.67
2018-10-09T02:03:24.579Z,5.22
2018-10-09T02:05:53.979Z,5.10
2018-10-09T02:08:24.615Z,5.77
2018-10-09T02:10:54.004Z,5.40
2018-10-09T02:13:24.647Z,7.53
2018-10-09T02:15:54.039Z,4.70
2018-10-09T02:18:24.563Z,4.56
2018-10-09T02:20:53.956Z,4.80
2018-10-09T02:23:24.591Z,5.53
2018-10-09T02:25:53.987Z,5.10
2018-10-09T02:28:24.629Z,5.50
2018-10-09T02:30:54.017Z,5.10
2018-10-09T02:33:24.674Z,5.50
2018-10-09T02:35:54.051Z,5.07
2018-10-09T02:43:26.083Z,5.10
2018-10-09T02:45:55.511Z,4.63
2018-10-09T02:48:24.975Z,5.75
2018-10-09T02:50:54.395Z,4.90
2018-10-09T02:53:25.035Z,3.97
2018-10-09T02:55:54.471Z,5.80
2018-10-09T02:58:25.408Z,4.60
2018-10-09T03:00:54.839Z,4.83
2018-10-09T03:03:25.231Z,4.47
2018-10-09T03:05:54.664Z,5.07
2018-10-09T03:08:25.131Z,4.08
2018-10-09T03:10:54.565Z,4.93
2018-10-09T03:13:25.216Z,6.90
2018-10-09T03:15:54.631Z,5.33
2018-10-09T03:18:25.261Z,5.40
2018-10-09T03:20:54.679Z,7.40
2018-10-09T03:23:25.330Z,7.20
2018-10-09T03:25:54.756Z,6.30
2018-10-09T03:28:25.251Z,6.10
2018-10-09T03:30:54.704Z,5.20
2018-10-09T03:33:25.348Z,6.73
2018-10-09T03:35:54.891Z,4.90
2018-10-09T03:38:25.350Z,5.33
2018-10-09T03:40:54.747Z,5.60
2018-10-09T03:43:25.275Z,4.78
2018-10-09T03:45:54.730Z,5.57
2018-10-09T03:48:25.276Z,5.24
2018-10-09T03:50:54.675Z,6.23
2018-10-09T03:53:25.455Z,4.90
2018-10-09T03:55:54.851Z,5.93
2018-10-09T03:58:25.295Z,4.62
2018-10-09T04:00:54.690Z,7.00
2018-10-09T04:03:25.431Z,5.23
2018-10-09T04:05:54.846Z,8.50
2018-10-09T04:08:25.346Z,9.20
2018-10-09T04:10:54.780Z,7.87
2018-10-09T04:13:25.410Z,7.78
2018-10-09T04:15:54.818Z,8.70
2018-10-09T04:18:25.335Z,7.06
2018-10-09T04:20:54.724Z,7.30
2018-10-09T04:23:25.673Z,9.30
2018-10-09T04:25:55.079Z,8.67
2018-10-09T04:28:25.427Z,8.08
2018-10-09T04:30:54.831Z,9.60
2018-10-09T04:33:25.319Z,10.38
2018-10-09T04:35:54.756Z,8.80
2018-10-09T04:38:25.387Z,9.30
2018-10-09T04:40:54.823Z,8.83
2018-10-09T04:43:25.394Z,9.08
2018-10-09T04:45:54.803Z,10.00
2018-10-09T04:48:25.350Z,9.82
2018-10-09T04:50:54.771Z,10.57
2018-10-09T04:53:25.427Z,7.80
2018-10-09T04:55:55.003Z,10.37
2018-10-09T04:58:25.522Z,9.30
2018-10-09T05:00:54.943Z,10.60
2018-10-09T05:03:25.535Z,10.02
2018-10-09T05:05:54.935Z,8.57
2018-10-09T05:08:25.448Z,10.45
2018-10-09T05:10:54.866Z,11.17
2018-10-09T05:13:25.387Z,7.02
2018-10-09T05:15:54.802Z,11.27
2018-10-09T05:18:25.458Z,7.23
2018-10-09T05:20:54.855Z,12.00
2018-10-09T05:23:25.508Z,10.22
2018-10-09T05:25:54.990Z,11.30
2018-10-09T05:28:25.727Z,9.50
2018-10-09T05:30:55.216Z,7.77
2018-10-09T05:33:25.547Z,7.72
2018-10-09T05:35:54.986Z,8.37
2018-10-09T05:38:25.641Z,8.67
2018-10-09T05:40:55.046Z,7.67
2018-10-09T05:43:25.623Z,7.92
2018-10-09T05:45:55.027Z,11.30
2018-10-09T05:48:25.583Z,6.18
2018-10-09T05:50:54.974Z,7.30
2018-10-09T05:53:25.633Z,7.27
2018-10-09T05:55:55.126Z,7.63
2018-10-09T05:58:25.567Z,7.68
2018-10-09T06:00:54.999Z,9.03
2018-10-09T06:03:25.647Z,8.60
2018-10-09T06:05:55.101Z,8.43
2018-10-09T06:08:25.559Z,8.20
2018-10-09T06:10:54.979Z,8.20
2018-10-09T06:13:25.644Z,9.00
2018-10-09T06:15:55.084Z,7.97
2018-10-09T06:18:25.732Z,7.47
2018-10-09T06:20:55.163Z,6.07
2018-10-09T06:23:25.627Z,8.33
2018-10-09T06:25:55.071Z,9.03
2018-10-09T06:28:25.636Z,8.68
2018-10-09T06:30:55.057Z,14.37
2018-10-09T06:33:25.759Z,9.07
2018-10-09T06:35:55.175Z,9.27
2018-10-09T06:38:25.813Z,8.83
2018-10-09T06:40:55.203Z,6.90
2018-10-09T06:43:25.763Z,8.58
2018-10-09T06:45:55.159Z,7.13
2018-10-09T06:48:25.815Z,9.27
2018-10-09T06:50:55.227Z,7.60
2018-10-09T06:53:25.978Z,7.74
2018-10-09T06:55:55.375Z,10.20
2018-10-09T06:58:25.915Z,6.95
2018-10-09T07:00:55.339Z,6.67
2018-10-09T07:03:25.836Z,7.94
2018-10-09T07:05:55.275Z,8.07
2018-10-09T07:08:25.775Z,8.82
2018-10-09T07:10:55.209Z,6.90
2018-10-09T07:13:25.910Z,7.93
2018-10-09T07:15:55.384Z,7.80
2018-10-09T07:18:26.103Z,6.67
2018-10-09T07:20:55.540Z,8.77
2018-10-09T07:23:26.028Z,8.50
2018-10-09T07:25:55.447Z,8.30
2018-10-09T07:28:25.952Z,7.34
2018-10-09T07:30:55.377Z,9.30
2018-10-09T07:33:26.025Z,9.13
2018-10-09T07:35:55.464Z,8.10
2018-10-09T07:38:25.990Z,7.68
2018-10-09T07:40:55.415Z,7.10
2018-10-09T07:43:26.076Z,7.27
2018-10-09T07:45:55.471Z,7.30
2018-10-09T07:48:26.095Z,6.97
2018-10-09T07:50:55.538Z,6.17
2018-10-09T07:53:25.978Z,7.22
2018-10-09T07:55:55.488Z,8.07
2018-10-09T07:58:26.021Z,6.88
2018-10-09T08:00:55.423Z,8.07
2018-10-09T08:03:26.053Z,6.50
2018-10-09T08:05:55.535Z,6.53
2018-10-09T08:08:26.009Z,7.22
2018-10-09T08:10:55.504Z,5.70
2018-10-09T08:13:26.071Z,5.73
2018-10-09T08:15:55.483Z,5.10
2018-10-09T08:18:26.146Z,5.47
2018-10-09T08:20:55.543Z,5.97
2018-10-09T08:23:26.017Z,4.82
2018-10-09T08:25:55.431Z,4.80
2018-10-09T08:28:26.059Z,6.43
2018-10-09T08:30:55.495Z,6.00
2018-10-09T08:33:26.124Z,5.60
2018-10-09T08:35:55.578Z,6.10
2018-10-09T08:38:26.204Z,6.50
2018-10-09T08:40:55.619Z,5.87
2018-10-09T08:43:26.252Z,5.30
2018-10-09T08:45:55.708Z,6.60
2018-10-09T08:48:26.371Z,5.67
2018-10-09T08:50:55.817Z,5.70
2018-10-09T08:53:26.191Z,6.55
2018-10-09T08:55:55.619Z,6.70
2018-10-09T08:58:26.252Z,7.73
2018-10-09T09:00:55.708Z,7.20
2018-10-09T09:03:26.287Z,7.28
2018-10-09T09:05:55.695Z,6.40
2018-10-09T09:08:26.231Z,7.50
2018-10-09T09:10:55.719Z,7.73
2018-10-09T09:13:26.360Z,7.03
2018-10-09T09:15:55.820Z,7.57
2018-10-09T09:18:26.375Z,6.52
2018-10-09T09:20:55.789Z,7.20
2018-10-09T09:23:26.288Z,6.76
2018-10-09T09:25:55.744Z,7.43
2018-10-09T09:28:26.383Z,8.60
2018-10-09T09:30:55.823Z,8.50
2018-10-09T09:33:26.355Z,8.32
2018-10-09T09:35:55.793Z,8.57
2018-10-09T09:38:26.416Z,8.50
2018-10-09T09:40:55.875Z,8.40
2018-10-09T09:43:26.335Z,7.85
2018-10-09T09:45:55.879Z,8.50
2018-10-09T09:48:26.432Z,8.70
2018-10-09T09:50:55.871Z,8.30
2018-10-09T09:53:26.359Z,8.50
2018-10-09T09:55:55.843Z,10.87
2018-10-09T09:58:26.499Z,8.90
2018-10-09T10:00:58.681Z,8.47
2018-10-09T10:03:28.377Z,10.27
2018-10-09T10:05:57.792Z,8.60
2018-10-09T10:08:27.187Z,9.70
2018-10-09T10:10:56.647Z,9.10
2018-10-09T10:13:26.343Z,10.30
2018-10-09T10:15:55.846Z,9.33
2018-10-09T10:18:26.607Z,9.40
2018-10-09T10:20:56.032Z,9.60
2018-10-09T10:23:26.488Z,9.23
2018-10-09T10:25:55.916Z,9.90
2018-10-09T10:28:26.346Z,11.35
2018-10-09T10:30:55.739Z,8.50
2018-10-09T10:33:26.398Z,10.97
2018-10-09T10:35:55.799Z,9.90
2018-10-09T10:38:26.522Z,12.50
2018-10-09T10:40:55.919Z,11.03
2018-10-09T10:43:26.370Z,10.63
2018-10-09T10:45:55.991Z,10.70
2018-10-09T10:48:26.402Z,10.53
2018-10-09T10:50:55.808Z,10.87
2018-10-09T10:53:26.493Z,9.00
2018-10-09T10:55:55.887Z,13.90
2018-10-09T10:58:26.367Z,11.53
2018-10-09T11:00:55.775Z,13.50
2018-10-09T11:03:26.431Z,14.53
2018-10-09T11:05:55.967Z,12.37
2018-10-09T11:08:26.643Z,13.93
2018-10-09T11:10:56.076Z,12.63
2018-10-09T11:13:26.551Z,13.10
2018-10-09T11:15:56.084Z,13.00
2018-10-09T11:18:26.580Z,13.28
2018-10-09T11:20:56.033Z,13.33
2018-10-09T11:23:26.721Z,13.73
2018-10-09T11:25:56.152Z,14.17
2018-10-09T11:28:26.705Z,16.23
2018-10-09T11:30:56.128Z,15.67
2018-10-09T11:33:26.591Z,15.93
2018-10-09T11:35:56.124Z,13.53
2018-10-09T11:38:26.723Z,14.90
2018-10-09T11:40:56.147Z,14.90
2018-10-09T11:43:26.568Z,15.70
2018-10-09T11:45:56.024Z,15.30
2018-10-09T11:48:26.704Z,14.17
2018-10-09T11:50:56.131Z,13.50
2018-10-09T11:53:26.609Z,14.23
2018-10-09T11:55:56.196Z,14.10
2018-10-09T11:58:26.601Z,14.05
2018-10-09T12:00:58.072Z,14.63
2018-10-09T12:03:27.516Z,11.60
2018-10-09T12:05:57.024Z,12.20
2018-10-09T12:08:26.623Z,12.45
2018-10-09T12:10:56.072Z,13.47
2018-10-09T12:13:26.715Z,12.90
2018-10-09T12:15:56.231Z,12.47
2018-10-09T12:18:26.597Z,14.43
2018-10-09T12:20:56.039Z,13.67
2018-10-09T12:23:26.683Z,15.13
2018-10-09T12:25:56.132Z,13.33
2018-10-09T12:28:26.676Z,14.04
2018-10-09T12:30:56.076Z,14.63
2018-10-09T12:33:26.952Z,12.90
2018-10-09T12:35:56.375Z,15.97
2018-10-09T12:38:26.673Z,14.00
2018-10-09T12:40:56.051Z,13.50
2018-10-09T12:43:26.705Z,12.23
2018-10-09T12:45:56.159Z,11.10
2018-10-09T12:48:26.732Z,11.48
2018-10-09T12:50:56.135Z,13.10
2018-10-09T12:53:26.680Z,10.05
2018-10-09T12:55:56.088Z,11.23
2018-10-09T12:58:26.880Z,10.80
2018-10-09T13:00:56.249Z,9.93
2018-10-09T13:03:26.885Z,11.16
2018-10-09T13:05:56.380Z,10.97
2018-10-09T13:08:26.900Z,10.70
2018-10-09T13:10:56.304Z,14.27
2018-10-09T13:13:26.999Z,12.27
2018-10-09T13:15:56.408Z,10.40
2018-10-09T13:18:26.856Z,12.30
2018-10-09T13:20:56.348Z,11.67
2018-10-09T13:23:26.959Z,10.80
2018-10-09T13:25:56.383Z,10.90
2018-10-09T13:28:26.968Z,10.15
2018-10-09T13:30:56.440Z,9.80
2018-10-09T13:33:26.797Z,10.25
2018-10-09T13:35:56.260Z,13.23
2018-10-09T13:38:26.949Z,9.70
2018-10-09T13:40:56.427Z,11.20
2018-10-09T13:43:27.064Z,9.47
2018-10-09T13:45:56.488Z,8.87
2018-10-09T13:48:27.029Z,10.35
2018-10-09T13:50:56.521Z,9.93
2018-10-09T13:53:27.144Z,9.83
2018-10-09T13:55:56.591Z,10.30
2018-10-09T13:58:27.005Z,10.98
2018-10-09T14:00:56.421Z,9.70
2018-10-09T14:03:27.096Z,9.13
2018-10-09T14:05:56.560Z,10.63
2018-10-09T14:08:27.047Z,9.58
2018-10-09T14:10:56.447Z,9.40
2018-10-09T14:13:27.112Z,10.57
2018-10-09T14:15:56.538Z,9.00
2018-10-09T14:18:27.050Z,11.28
2018-10-09T14:20:56.540Z,10.07
2018-10-09T14:23:27.199Z,13.43
2018-10-09T14:25:57.000Z,10.70
2018-10-09T14:28:27.203Z,9.30
2018-10-09T14:30:56.623Z,12.00
2018-10-09T14:33:27.597Z,15.37
2018-10-09T14:35:57.031Z,8.60
2018-10-09T14:38:27.383Z,11.73
2018-10-09T14:40:56.791Z,8.60
2018-10-09T14:43:27.459Z,9.13
2018-10-09T14:45:56.872Z,9.80
2018-10-09T14:48:27.361Z,11.95
2018-10-09T14:50:56.757Z,10.10
2018-10-09T14:53:27.420Z,11.20
2018-10-09T14:55:56.843Z,8.67
2018-10-09T14:58:27.455Z,8.84
2018-10-09T15:00:57.040Z,10.20
2018-10-09T15:03:27.502Z,8.23
2018-10-09T15:05:56.931Z,8.00
2018-10-09T15:08:27.367Z,7.70
2018-10-09T15:10:56.772Z,7.80
2018-10-09T15:13:27.428Z,7.63
2018-10-09T15:15:56.819Z,7.20
2018-10-09T15:18:27.499Z,7.77
2018-10-09T15:20:57.067Z,8.40
2018-10-09T15:23:27.443Z,7.78
2018-10-09T15:25:56.859Z,8.90
2018-10-09T15:28:27.521Z,10.67
2018-10-09T15:30:56.904Z,7.60
2018-10-09T15:33:27.464Z,9.03
2018-10-09T15:35:56.872Z,8.30
2018-10-09T15:38:27.594Z,7.57
2018-10-09T15:40:57.043Z,9.10
2018-10-09T15:43:27.486Z,8.10
2018-10-09T15:45:56.949Z,8.60
2018-10-09T15:48:27.455Z,17.05
2018-10-09T15:50:56.914Z,13.33
2018-10-09T15:53:27.556Z,11.03
2018-10-09T15:55:57.079Z,12.80
2018-10-09T15:58:27.556Z,14.05
2018-10-09T16:00:57.134Z,12.00
2018-10-09T16:03:27.456Z,11.15
2018-10-09T16:05:56.893Z,9.17
2018-10-09T16:08:27.819Z,13.30
2018-10-09T16:10:57.282Z,11.27
2018-10-09T16:13:27.682Z,11.53
2018-10-09T16:15:57.151Z,12.03
2018-10-09T16:18:27.635Z,11.95
2018-10-09T16:20:57.091Z,10.73
2018-10-09T16:23:27.714Z,10.10
2018-10-09T16:25:57.141Z,15.37
2018-10-09T16:28:27.788Z,13.57
2018-10-09T16:30:57.333Z,10.33
2018-10-09T16:33:27.799Z,12.80
2018-10-09T16:35:57.248Z,13.13
2018-10-09T16:38:27.747Z,15.08
2018-10-09T16:40:57.179Z,17.40
2018-10-09T16:43:27.742Z,12.72
2018-10-09T16:45:57.158Z,11.80
2018-10-09T16:48:27.679Z,13.44
2018-10-09T16:50:57.107Z,12.23
2018-10-09T16:53:27.812Z,12.60
2018-10-09T16:55:57.147Z,13.43
2018-10-09T16:58:27.831Z,11.63
2018-10-09T17:00:57.284Z,12.27
2018-10-09T17:03:27.647Z,13.65
2018-10-09T17:05:57.217Z,11.97
2018-10-09T17:08:27.795Z,12.82
2018-10-09T17:10:57.235Z,13.33
2018-10-09T17:13:27.747Z,15.58
2018-10-09T17:15:57.140Z,16.33
2018-10-09T17:18:27.732Z,11.72
2018-10-09T17:20:57.135Z,12.73
2018-10-09T17:23:27.722Z,14.20
2018-10-09T17:25:57.139Z,15.57
2018-10-09T17:28:27.844Z,14.77
2018-10-09T17:30:57.232Z,13.30
2018-10-09T17:33:27.841Z,14.25
2018-10-09T17:35:57.416Z,14.03
2018-10-09T17:38:27.756Z,12.60
2018-10-09T17:40:57.151Z,13.13
2018-10-09T17:43:27.840Z,12.80
2018-10-09T17:45:57.263Z,14.43
2018-10-09T17:48:28.296Z,12.63
2018-10-09T17:50:57.719Z,12.40
2018-10-09T17:53:27.819Z,13.65
2018-10-09T17:55:57.258Z,16.00
2018-10-09T17:58:27.840Z,14.20
2018-10-09T18:00:57.410Z,15.00
2018-10-09T18:03:27.902Z,14.83
2018-10-09T18:05:57.528Z,16.57
2018-10-09T18:08:27.878Z,14.35
2018-10-09T18:10:58.592Z,14.83
2018-10-09T18:13:28.307Z,12.07
2018-10-09T18:15:57.928Z,15.97
2018-10-09T18:18:28.769Z,16.82
2018-10-09T18:20:59.348Z,14.60
2018-10-09T18:23:30.497Z,13.63
2018-10-09T18:26:02.762Z,14.07
2018-10-09T18:28:33.986Z,11.87
2018-10-09T18:31:06.546Z,14.80
2018-10-09T18:33:42.767Z,18.73
2018-10-09T18:36:19.055Z,14.50
2018-10-09T18:38:53.552Z,18.87
2018-10-09T18:41:26.974Z,13.90
2018-10-09T18:44:00.812Z,18.13
2018-10-09T18:46:34.028Z,16.67
2018-10-09T18:49:07.378Z,16.27
2018-10-09T18:51:40.704Z,15.73
2018-10-09T18:54:13.939Z,15.30
2018-10-09T18:56:47.712Z,16.03
2018-10-09T18:59:21.043Z,16.20
2018-10-09T19:01:57.500Z,14.20
2018-10-09T19:04:33.938Z,15.77
2018-10-09T19:07:14.090Z,14.37
2018-10-09T19:09:47.160Z,14.50
2018-10-09T19:12:21.088Z,17.07
2018-10-09T19:14:54.086Z,14.03
2018-10-09T19:17:27.163Z,16.93
2018-10-09T19:20:00.121Z,16.70
2018-10-09T19:22:33.467Z,14.23
2018-10-09T19:25:06.799Z,16.17
2018-10-09T19:27:39.971Z,12.43
2018-10-09T19:30:12.975Z,15.03
2018-10-09T19:32:46.435Z,16.50
2018-10-09T19:35:19.931Z,15.37
2018-10-09T19:37:53.169Z,13.50
2018-10-09T19:40:26.302Z,15.37
2018-10-09T19:42:59.735Z,17.37
2018-10-09T19:45:32.769Z,13.20
2018-10-09T19:48:06.022Z,15.90
2018-10-09T19:50:39.155Z,16.87
2018-10-09T19:53:12.365Z,12.77
2018-10-09T19:55:45.984Z,15.43
2018-10-09T19:58:18.848Z,17.20
2018-10-09T20:00:52.123Z,15.47
2018-10-09T20:03:25.345Z,14.77
2018-10-09T20:05:58.983Z,16.33
2018-10-09T20:08:31.394Z,15.33
2018-10-09T20:11:04.623Z,16.83
2018-10-09T20:13:37.445Z,14.70
2018-10-09T20:16:11.571Z,15.87
2018-10-09T20:18:44.497Z,16.53
2018-10-09T20:21:17.935Z,16.90
2018-10-09T20:23:50.877Z,19.27
2018-10-09T20:26:24.203Z,18.63
2018-10-09T20:28:58.010Z,17.57
2018-10-09T20:31:31.892Z,21.00
2018-10-09T20:34:04.777Z,19.80
2018-10-09T20:36:37.857Z,19.30
2018-10-09T20:39:11.706Z,16.67
2018-10-09T20:41:45.424Z,16.53
2018-10-09T20:44:16.991Z,17.37
2018-10-09T20:46:46.807Z,17.37
2018-10-09T20:49:17.024Z,21.80
2018-10-09T20:51:46.835Z,21.17
2018-10-09T20:54:17.902Z,16.77
2018-10-09T20:56:48.073Z,16.00
2018-10-09T20:59:17.634Z,15.30
2018-10-09T21:01:47.389Z,17.23
2018-10-09T21:04:16.909Z,15.10
2018-10-09T21:06:47.086Z,16.93
2018-10-09T21:09:16.560Z,14.37
2018-10-09T21:11:45.972Z,14.87
2018-10-09T21:14:15.454Z,14.93
2018-10-09T21:16:44.847Z,14.30
2018-10-09T21:19:14.272Z,15.20
2018-10-09T21:21:43.791Z,18.80
2018-10-09T21:24:13.212Z,17.27
2018-10-09T21:26:42.611Z,15.30
2018-10-09T21:29:12.043Z,17.17
2018-10-09T21:31:41.446Z,15.00
2018-10-09T21:34:10.880Z,14.90
2018-10-09T21:36:40.331Z,17.60
2018-10-09T21:39:10.468Z,15.70
2018-10-09T21:41:39.920Z,15.17
2018-10-09T21:44:09.339Z,15.23
2018-10-09T21:46:38.767Z,14.70
2018-10-09T21:49:08.257Z,15.63
2018-10-09T21:51:37.659Z,15.83
2018-10-09T21:54:07.152Z,15.28
2018-10-09T21:56:36.568Z,16.57
2018-10-09T21:59:06.072Z,14.80
2018-10-09T22:01:35.483Z,16.90
2018-10-09T22:04:04.923Z,17.23
2018-10-09T22:06:34.331Z,15.40
2018-10-09T22:09:05.084Z,21.07
2018-10-09T22:11:34.491Z,15.90
2018-10-09T22:14:03.912Z,17.20
2018-10-09T22:16:33.331Z,14.60
2018-10-09T22:19:02.732Z,15.13
2018-10-09T22:21:32.128Z,14.70
2018-10-09T22:24:01.548Z,17.60
2018-10-09T22:26:30.961Z,15.57
2018-10-09T22:29:00.359Z,13.30
2018-10-09T22:31:29.771Z,15.30
2018-10-09T22:33:59.215Z,15.30
2018-10-09T22:36:28.775Z,15.40
2018-10-09T22:38:58.180Z,14.30
2018-10-09T22:41:27.616Z,14.67
2018-10-09T22:43:57.061Z,16.73
2018-10-09T22:46:26.482Z,17.20
2018-10-09T22:48:55.870Z,17.60
2018-10-09T22:51:25.267Z,14.50
2018-10-09T22:53:54.746Z,18.87
2018-10-09T22:56:24.132Z,15.00
2018-10-09T22:58:53.540Z,20.40
2018-10-09T23:01:22.968Z,16.90
2018-10-09T23:03:52.367Z,20.97
2018-10-09T23:06:21.791Z,20.37
2018-10-09T23:08:51.208Z,19.60
2018-10-09T23:11:20.615Z,19.40
2018-10-09T23:13:50.002Z,22.17
2018-10-09T23:16:19.415Z,19.90
2018-10-09T23:18:48.874Z,17.10
2018-10-09T23:21:18.319Z,20.23
2018-10-09T23:23:47.743Z,26.07
2018-10-09T23:26:17.146Z,23.87
2018-10-09T23:28:46.613Z,22.33
2018-10-09T23:31:16.024Z,24.60
2018-10-09T23:33:45.453Z,28.80
2018-10-09T23:36:14.903Z,26.20
2018-10-09T23:38:44.348Z,22.80
2018-10-09T23:41:13.757Z,25.40
2018-10-09T23:43:43.312Z,24.10
2018-10-09T23:46:12.736Z,27.50
2018-10-09T23:48:42.150Z,22.07
2018-10-09T23:51:11.548Z,18.30
2018-10-09T23:53:40.984Z,23.60
2018-10-09T23:56:10.432Z,27.57
2018-10-09T23:58:39.839Z,27.27
